| Været i Hovsveien
Halden Norge Oppdatert kl 5:28 den 23/4/26 |
|
Værrapport for året.
|
|
Værrapport denne måned.
|
|
Årlig min / max
/ snitt.
|
|
Min / max / snitt denne måned.
|
|
Min
/ max
/ snitt i dag.
|
Min / max
/ snitt i går.
Parameter Max Max Time Min Min Time Average Wind Direction 360 2:07 1 2:41 315 Wind Gust 5.4 13:53 0.0 0:01 1.4 Humidity 78 6:20 45 14:43 64 Out Temp 15.7 13:14 4.7 6:26 10.4 UV Index 3.0 12:08 0.0 0:00 0.7 Solar Radiation 791 11:38 0 0:00 192 Wind Chill 15.7 13:14 3.9 5:43 10.3 SL Barometer 1024.5 1:31 1019.1 20:18 1021.9 |
|
Værdata
i dag.
23/4/26
Time Wind Dir Wind Gust Humidity Temp UV Solar Wind Chill Barom SL WindGust H Humidity H Temp Out H UV Hi Solar Hi SL Barom H Humidity L Temp Out L WindCh Lo SL Barom L DailyRain HourRain MonthRain
° mps % °C W/sqm °C mb mps % °C W/sqm mb % °C °C mb mm mm mm
0:00 41 1.8 67 9.5 0.0 0 8.8 1019.5 1.8 67 9.5 0.0 0 1019.5 67 9.5 8.8 1019.5 0.0 0.0 66.4
0:15 341 1.8 66 9.7 0.0 0 9.7 1019.6 4.9 67 9.8 0.0 0 1019.6 65 9.5 7.0 1019.4 0.0 0.0 66.4
0:30 336 1.3 66 9.6 0.0 0 9.6 1019.7 4.9 67 9.8 0.0 0 1019.7 65 9.5 7.0 1019.4 0.0 0.0 66.4
0:45 339 0.4 65 9.7 0.0 0 9.7 1019.9 4.9 67 9.8 0.0 0 1019.9 65 9.5 7.0 1019.4 0.0 0.0 66.4
1:00 358 0.4 66 9.4 0.0 0 9.4 1020.0 4.9 67 9.8 0.0 0 1020.0 65 9.4 7.0 1019.4 0.0 0.0 66.4
1:15 360 1.3 67 9.2 0.0 0 9.2 1020.1 4.9 67 9.8 0.0 0 1020.1 65 9.2 7.0 1019.4 0.0 0.0 66.4
1:30 358 1.3 67 9.0 0.0 0 8.7 1020.3 4.9 67 9.8 0.0 0 1020.3 65 9.0 7.0 1019.4 0.0 0.0 66.4
1:45 357 0.9 68 8.7 0.0 0 8.7 1020.4 4.9 68 9.8 0.0 0 1020.4 65 8.7 7.0 1019.4 0.0 0.0 66.4
2:00 355 1.3 69 8.5 0.0 0 8.5 1020.5 4.9 69 9.8 0.0 0 1020.5 65 8.5 7.0 1019.4 0.0 0.0 66.4
2:15 326 1.3 68 8.6 0.0 0 8.6 1020.6 4.9 69 9.8 0.0 0 1020.6 65 8.5 6.7 1019.4 0.0 0.0 66.4
2:30 352 0.9 68 8.3 0.0 0 8.3 1020.4 4.9 69 9.8 0.0 0 1020.7 65 8.3 6.7 1019.4 0.0 0.0 66.4
2:45 337 1.3 68 8.4 0.0 0 8.4 1020.7 4.9 69 9.8 0.0 0 1020.7 65 8.3 6.7 1019.4 0.0 0.0 66.4
3:00 337 0.4 69 8.2 0.0 0 8.2 1020.7 4.9 69 9.8 0.0 0 1020.8 65 8.2 6.7 1019.4 0.0 0.0 66.4
3:15 336 1.3 70 7.8 0.0 0 7.8 1020.8 4.9 70 9.8 0.0 0 1020.9 65 7.8 6.7 1019.4 0.0 0.0 66.4
3:30 334 0.4 72 7.4 0.0 0 7.4 1020.9 4.9 72 9.8 0.0 0 1020.9 65 7.4 6.2 1019.4 0.0 0.0 66.4
3:45 334 0.9 74 6.8 0.0 0 6.8 1020.9 4.9 74 9.8 0.0 0 1021.0 65 6.8 6.2 1019.4 0.0 0.0 66.4
4:00 334 0.9 75 6.6 0.0 0 6.6 1020.9 4.9 75 9.8 0.0 0 1021.0 65 6.5 6.2 1019.4 0.0 0.0 66.4
4:15 334 0.9 76 6.3 0.0 0 6.3 1021.0 4.9 76 9.8 0.0 0 1021.0 65 6.2 5.5 1019.4 0.0 0.0 66.4
4:30 334 1.3 74 6.6 0.0 0 6.6 1021.0 4.9 76 9.8 0.0 0 1021.0 65 6.2 5.1 1019.4 0.0 0.0 66.4
4:45 334 0.9 75 6.2 0.0 0 6.2 1021.1 4.9 76 9.8 0.0 0 1021.2 65 6.2 5.1 1019.4 0.0 0.0 66.4
5:00 334 0.9 77 5.8 0.0 0 5.8 1021.2 4.9 77 9.8 0.0 0 1021.2 65 5.8 5.1 1019.4 0.0 0.0 66.4
5:15 333 1.8 77 5.7 0.0 0 5.0 1021.2 4.9 77 9.8 0.0 0 1021.2 65 5.7 4.4 1019.4 0.0 0.0 66.4
|
|
Gårsdagens værdata.
22/4/26
Time Wind Dir Wind Gust Humidity Temp UV Solar Wind Chill Barom SL WindGust H Humidity H Temp Out H UV Hi Solar Hi SL Barom H Humidity L Temp Out L WindCh Lo SL Barom L DailyRain HourRain MonthRain
° mps % °C W/sqm °C mb mps % °C W/sqm mb % °C °C mb mm mm mm
0:00 297 0.4 62 10.3 0.0 0 10.3 1024.3 0.4 62 10.3 0.0 0 1024.3 62 10.3 10.3 1024.3 0.0 0.0 66.4
0:15 297 0.4 62 10.0 0.0 0 10.0 1024.4 0.9 63 10.3 0.0 0 1024.4 62 10.0 10.0 1024.3 0.0 0.0 66.4
0:30 297 1.3 63 9.7 0.0 0 9.7 1024.3 1.3 63 10.3 0.0 0 1024.4 62 9.7 9.5 1024.3 0.0 0.0 66.4
0:45 322 0.4 64 9.4 0.0 0 9.4 1024.2 2.2 64 10.3 0.0 0 1024.4 62 9.4 8.5 1024.2 0.0 0.0 66.4
1:00 317 0.9 65 9.3 0.0 0 9.3 1024.5 2.2 65 10.3 0.0 0 1024.5 62 9.3 8.5 1024.2 0.0 0.0 66.4
1:15 316 0.4 67 9.1 0.0 0 9.1 1024.4 2.2 67 10.3 0.0 0 1024.5 62 9.0 8.5 1024.2 0.0 0.0 66.4
1:30 316 0.4 66 9.0 0.0 0 9.0 1024.5 2.2 67 10.3 0.0 0 1024.5 62 9.0 8.5 1024.2 0.0 0.0 66.4
1:45 318 1.3 68 8.8 0.0 0 8.8 1024.2 2.2 68 10.3 0.0 0 1024.5 62 8.8 8.5 1024.2 0.0 0.0 66.4
2:00 318 0.9 68 8.6 0.0 0 8.6 1024.4 2.2 68 10.3 0.0 0 1024.5 62 8.6 8.4 1024.2 0.0 0.0 66.4
2:15 324 0.9 67 8.6 0.0 0 8.6 1024.3 2.7 68 10.3 0.0 0 1024.5 62 8.6 7.0 1024.2 0.0 0.0 66.4
2:30 356 0.9 67 8.3 0.0 0 8.3 1024.2 3.1 68 10.3 0.0 0 1024.5 62 8.3 6.5 1024.1 0.0 0.0 66.4
2:45 21 1.3 68 7.9 0.0 0 7.9 1024.3 3.1 68 10.3 0.0 0 1024.5 62 7.9 6.4 1024.1 0.0 0.0 66.4
3:00 322 1.3 69 7.6 0.0 0 7.1 1024.2 3.1 69 10.3 0.0 0 1024.5 62 7.6 6.1 1024.1 0.0 0.0 66.4
3:15 303 1.8 70 7.3 0.0 0 6.8 1024.1 3.1 70 10.3 0.0 0 1024.5 62 7.3 5.5 1024.1 0.0 0.0 66.4
3:30 301 1.8 69 7.2 0.0 0 6.2 1024.0 3.6 70 10.3 0.0 0 1024.5 62 7.2 4.8 1024.0 0.0 0.0 66.4
3:45 330 1.8 68 7.1 0.0 0 6.6 1024.0 3.6 70 10.3 0.0 0 1024.5 62 7.1 4.8 1024.0 0.0 0.0 66.4
4:00 328 0.9 70 6.8 0.0 0 6.8 1024.0 3.6 70 10.3 0.0 0 1024.5 62 6.8 4.8 1024.0 0.0 0.0 66.4
4:15 338 1.3 70 6.7 0.0 0 6.7 1024.1 3.6 70 10.3 0.0 0 1024.5 62 6.7 4.8 1024.0 0.0 0.0 66.4
4:30 333 1.8 70 6.7 0.0 0 6.7 1024.1 3.6 70 10.3 0.0 0 1024.5 62 6.7 4.8 1024.0 0.0 0.0 66.4
4:45 341 0.9 71 6.4 0.0 0 6.4 1024.3 3.6 71 10.3 0.0 0 1024.5 62 6.4 4.8 1024.0 0.0 0.0 66.4
5:00 341 0.9 72 6.2 0.0 0 6.2 1024.1 3.6 72 10.3 0.0 0 1024.5 62 6.2 4.8 1024.0 0.0 0.0 66.4
5:15 339 0.4 72 5.9 0.0 0 5.9 1024.1 3.6 72 10.3 0.0 0 1024.5 62 5.9 4.8 1024.0 0.0 0.0 66.4
5:30 335 1.8 73 5.7 0.0 0 4.4 1024.0 3.6 73 10.3 0.0 0 1024.5 62 5.7 4.2 1024.0 0.0 0.0 66.4
5:45 333 1.8 74 5.2 0.0 5 5.2 1024.0 3.6 74 10.3 0.0 5 1024.5 62 5.2 3.9 1024.0 0.0 0.0 66.4
6:00 333 0.4 75 4.9 0.0 11 4.9 1023.9 3.6 75 10.3 0.0 11 1024.5 62 4.9 3.9 1023.9 0.0 0.0 66.4
6:15 333 0.0 76 4.8 0.0 21 4.8 1023.8 3.6 76 10.3 0.0 21 1024.5 62 4.8 3.9 1023.8 0.0 0.0 66.4
6:30 333 0.0 78 4.7 0.0 26 4.7 1023.9 3.6 78 10.3 0.0 26 1024.5 62 4.7 3.9 1023.8 0.0 0.0 66.4
6:45 333 0.9 76 4.8 0.0 28 4.8 1024.0 3.6 78 10.3 0.0 30 1024.5 62 4.7 3.9 1023.8 0.0 0.0 66.4
7:00 339 0.0 77 4.8 0.0 37 4.8 1024.0 3.6 78 10.3 0.0 37 1024.5 62 4.7 3.9 1023.8 0.0 0.0 66.4
7:15 339 0.0 75 5.1 0.0 62 5.1 1024.0 3.6 78 10.3 0.0 62 1024.5 62 4.7 3.9 1023.8 0.0 0.0 66.4
7:30 339 0.9 75 5.8 0.0 113 5.8 1024.0 3.6 78 10.3 0.0 165 1024.5 62 4.7 3.9 1023.8 0.0 0.0 66.4
7:45 343 0.9 73 6.2 0.0 229 6.2 1023.9 3.6 78 10.3 0.0 229 1024.5 62 4.7 3.9 1023.8 0.0 0.0 66.4
8:00 345 0.9 72 6.8 0.0 283 6.8 1023.8 3.6 78 10.3 0.0 283 1024.5 62 4.7 3.9 1023.8 0.0 0.0 66.4
8:15 344 0.9 70 7.7 0.5 327 7.7 1023.7 3.6 78 10.3 0.5 327 1024.5 62 4.7 3.9 1023.7 0.0 0.0 66.4
8:30 341 0.9 69 8.2 0.5 169 8.2 1023.6 3.6 78 10.3 0.6 338 1024.5 62 4.7 3.9 1023.6 0.0 0.0 66.4
8:45 337 0.4 68 8.7 0.6 146 8.7 1023.4 3.6 78 10.3 0.6 338 1024.5 62 4.7 3.9 1023.3 0.0 0.0 66.4
9:00 333 2.7 65 9.2 0.6 100 8.4 1023.4 3.6 78 10.3 0.7 338 1024.5 62 4.7 3.9 1023.3 0.0 0.0 66.4
9:15 305 1.8 64 9.7 0.8 171 9.4 1023.3 3.6 78 10.3 0.8 338 1024.5 62 4.7 3.9 1023.3 0.0 0.0 66.4
9:30 326 1.3 64 9.9 0.8 207 9.9 1023.2 3.6 78 10.3 0.8 338 1024.5 62 4.7 3.9 1023.2 0.0 0.0 66.4
9:45 330 2.2 64 10.5 1.0 253 9.6 1023.1 3.6 78 10.5 1.1 338 1024.5 62 4.7 3.9 1023.1 0.0 0.0 66.4
10:00 304 3.1 65 10.7 1.1 323 10.7 1023.1 3.6 78 10.8 1.1 338 1024.5 62 4.7 3.9 1023.0 0.0 0.0 66.4
10:15 336 2.2 64 11.1 1.6 522 10.2 1022.9 3.6 78 11.1 1.6 527 1024.5 62 4.7 3.9 1022.9 0.0 0.0 66.4
10:30 282 2.7 62 11.8 1.9 599 11.8 1022.9 3.6 78 11.8 1.9 599 1024.5 62 4.7 3.9 1022.9 0.0 0.0 66.4
10:45 304 3.6 60 12.4 2.1 659 11.9 1022.7 3.6 78 12.4 2.1 659 1024.5 59 4.7 3.9 1022.7 0.0 0.0 66.4
11:00 300 1.8 58 13.0 2.3 700 13.0 1022.7 3.6 78 13.0 2.3 700 1024.5 57 4.7 3.9 1022.7 0.0 0.0 66.4
11:15 247 2.7 56 13.4 2.4 737 13.4 1022.5 3.6 78 13.4 2.5 749 1024.5 55 4.7 3.9 1022.5 0.0 0.0 66.4
11:30 297 2.7 55 13.7 2.2 677 13.1 1022.4 3.6 78 13.7 2.6 754 1024.5 54 4.7 3.9 1022.4 0.0 0.0 66.4
11:45 279 2.7 54 14.2 2.5 657 14.2 1022.4 3.6 78 14.3 2.8 791 1024.5 53 4.7 3.9 1022.3 0.0 0.0 66.4
12:00 295 3.6 55 14.4 2.6 673 14.0 1022.0 3.6 78 14.5 2.8 791 1024.5 53 4.7 3.9 1022.0 0.0 0.0 66.4
12:15 308 3.1 53 14.9 2.9 768 14.8 1021.7 3.6 78 14.9 3.0 791 1024.5 53 4.7 3.9 1021.7 0.0 0.0 66.4
12:30 279 1.8 52 15.0 2.7 649 15.0 1021.5 4.0 78 15.1 3.0 791 1024.5 51 4.7 3.9 1021.5 0.0 0.0 66.4
12:45 285 3.1 50 15.2 2.4 543 14.9 1021.6 4.0 78 15.4 3.0 791 1024.5 49 4.7 3.9 1021.5 0.0 0.0 66.4
13:00 284 2.7 50 15.6 2.4 548 15.6 1021.4 4.0 78 15.6 3.0 791 1024.5 49 4.7 3.9 1021.4 0.0 0.0 66.4
13:15 355 2.7 49 15.6 2.6 629 15.6 1021.1 4.0 78 15.7 3.0 791 1024.5 48 4.7 3.9 1021.1 0.0 0.0 66.4
13:30 258 3.1 47 15.6 2.3 520 15.6 1020.9 4.5 78 15.7 3.0 791 1024.5 47 4.7 3.9 1020.9 0.0 0.0 66.4
13:45 337 2.7 48 15.7 2.5 612 15.5 1020.9 4.5 78 15.7 3.0 791 1024.5 46 4.7 3.9 1020.9 0.0 0.0 66.4
14:00 260 3.1 50 15.3 2.0 473 14.8 1020.9 5.4 78 15.7 3.0 791 1024.5 46 4.7 3.9 1020.8 0.0 0.0 66.4
14:15 295 4.0 47 15.4 2.0 508 15.2 1020.6 5.4 78 15.7 3.0 791 1024.5 46 4.7 3.9 1020.6 0.0 0.0 66.4
14:30 301 2.2 48 15.4 1.8 432 15.4 1020.5 5.4 78 15.7 3.0 791 1024.5 46 4.7 3.9 1020.4 0.0 0.0 66.4
14:45 325 2.2 46 15.3 1.7 427 15.3 1020.5 5.4 78 15.7 3.0 791 1024.5 45 4.7 3.9 1020.4 0.0 0.0 66.4
15:00 321 2.7 46 15.1 1.4 355 14.9 1020.5 5.4 78 15.7 3.0 791 1024.5 45 4.7 3.9 1020.4 0.0 0.0 66.4
15:15 301 3.6 47 14.6 1.5 374 14.6 1020.4 5.4 78 15.7 3.0 791 1024.5 45 4.7 3.9 1020.4 0.0 0.0 66.4
15:30 342 2.2 47 14.7 1.4 367 14.7 1020.2 5.4 78 15.7 3.0 791 1024.5 45 4.7 3.9 1020.2 0.0 0.0 66.4
15:45 275 3.6 47 14.3 1.3 345 13.9 1020.3 5.4 78 15.7 3.0 791 1024.5 45 4.7 3.9 1020.2 0.0 0.0 66.4
16:00 296 4.0 49 14.3 1.3 367 14.3 1020.4 5.4 78 15.7 3.0 791 1024.5 45 4.7 3.9 1020.2 0.0 0.0 66.4
16:15 319 2.2 49 14.0 1.1 304 14.0 1020.2 5.4 78 15.7 3.0 791 1024.5 45 4.7 3.9 1020.2 0.0 0.0 66.4
16:30 279 2.7 50 14.1 1.0 336 14.1 1020.2 5.4 78 15.7 3.0 791 1024.5 45 4.7 3.9 1020.1 0.0 0.0 66.4
16:45 360 1.3 49 13.8 0.8 232 13.8 1020.0 5.4 78 15.7 3.0 791 1024.5 45 4.7 3.9 1020.0 0.0 0.0 66.4
17:00 281 3.1 50 13.6 0.7 241 13.6 1020.0 5.4 78 15.7 3.0 791 1024.5 45 4.7 3.9 1019.9 0.0 0.0 66.4
17:15 308 3.1 52 13.6 0.6 218 13.5 1020.1 5.4 78 15.7 3.0 791 1024.5 45 4.7 3.9 1019.9 0.0 0.0 66.4
17:30 316 0.9 53 13.4 0.6 178 13.4 1019.9 5.4 78 15.7 3.0 791 1024.5 45 4.7 3.9 1019.9 0.0 0.0 66.4
17:45 322 1.3 55 13.1 0.5 153 13.1 1019.8 5.4 78 15.7 3.0 791 1024.5 45 4.7 3.9 1019.8 0.0 0.0 66.4
18:00 322 1.3 56 12.8 0.0 142 12.8 1019.7 5.4 78 15.7 3.0 791 1024.5 45 4.7 3.9 1019.7 0.0 0.0 66.4
18:15 292 1.3 59 12.7 0.0 116 12.7 1019.7 5.4 78 15.7 3.0 791 1024.5 45 4.7 3.9 1019.5 0.0 0.0 66.4
18:30 300 1.3 60 12.4 0.0 105 12.4 1019.5 5.4 78 15.7 3.0 791 1024.5 45 4.7 3.9 1019.5 0.0 0.0 66.4
18:45 308 0.9 61 12.3 0.0 93 12.3 1019.7 5.4 78 15.7 3.0 791 1024.5 45 4.7 3.9 1019.5 0.0 0.0 66.4
19:00 301 1.3 61 12.1 0.0 74 12.1 1019.5 5.4 78 15.7 3.0 791 1024.5 45 4.7 3.9 1019.5 0.0 0.0 66.4
19:15 301 0.9 62 12.0 0.0 63 12.0 1019.4 5.4 78 15.7 3.0 791 1024.5 45 4.7 3.9 1019.4 0.0 0.0 66.4
19:30 301 0.0 64 11.9 0.0 40 11.9 1019.4 5.4 78 15.7 3.0 791 1024.5 45 4.7 3.9 1019.4 0.0 0.0 66.4
19:45 302 0.9 66 11.6 0.0 25 11.6 1019.4 5.4 78 15.7 3.0 791 1024.5 45 4.7 3.9 1019.2 0.0 0.0 66.4
20:00 302 0.0 68 11.2 0.0 19 11.2 1019.3 5.4 78 15.7 3.0 791 1024.5 45 4.7 3.9 1019.2 0.0 0.0 66.4
20:15 302 0.0 69 10.8 0.0 14 10.8 1019.2 5.4 78 15.7 3.0 791 1024.5 45 4.7 3.9 1019.2 0.0 0.0 66.4
20:30 302 0.0 71 10.4 0.0 7 10.4 1019.2 5.4 78 15.7 3.0 791 1024.5 45 4.7 3.9 1019.1 0.0 0.0 66.4
20:45 302 0.0 72 9.8 0.0 0 9.8 1019.2 5.4 78 15.7 3.0 791 1024.5 45 4.7 3.9 1019.1 0.0 0.0 66.4
21:00 302 0.0 73 9.4 0.0 0 9.4 1019.3 5.4 78 15.7 3.0 791 1024.5 45 4.7 3.9 1019.1 0.0 0.0 66.4
21:15 302 0.0 74 9.1 0.0 0 9.1 1019.5 5.4 78 15.7 3.0 791 1024.5 45 4.7 3.9 1019.1 0.0 0.0 66.4
21:30 302 0.0 76 8.7 0.0 0 8.7 1019.4 5.4 78 15.7 3.0 791 1024.5 45 4.7 3.9 1019.1 0.0 0.0 66.4
21:45 302 0.0 76 8.4 0.0 0 8.4 1019.7 5.4 78 15.7 3.0 791 1024.5 45 4.7 3.9 1019.1 0.0 0.0 66.4
22:00 302 0.0 77 8.3 0.0 0 8.3 1019.5 5.4 78 15.7 3.0 791 1024.5 45 4.7 3.9 1019.1 0.0 0.0 66.4
22:15 302 0.4 77 8.1 0.0 0 8.1 1019.5 5.4 78 15.7 3.0 791 1024.5 45 4.7 3.9 1019.1 0.0 0.0 66.4
22:30 302 0.9 77 8.1 0.0 0 8.1 1019.5 5.4 78 15.7 3.0 791 1024.5 45 4.7 3.9 1019.1 0.0 0.0 66.4
22:45 302 0.9 76 8.2 0.0 0 8.2 1019.4 5.4 78 15.7 3.0 791 1024.5 45 4.7 3.9 1019.1 0.0 0.0 66.4
23:00 335 0.9 73 8.7 0.0 0 8.7 1019.4 5.4 78 15.7 3.0 791 1024.5 45 4.7 3.9 1019.1 0.0 0.0 66.4
23:15 336 0.4 71 8.8 0.0 0 8.8 1019.3 5.4 78 15.7 3.0 791 1024.5 45 4.7 3.9 1019.1 0.0 0.0 66.4
23:30 350 1.8 69 9.1 0.0 0 8.3 1019.4 5.4 78 15.7 3.0 791 1024.5 45 4.7 3.9 1019.1 0.0 0.0 66.4
23:45 350 1.8 69 9.1 0.0 0 9.1 1019.4 5.4 78 15.7 3.0 791 1024.5 45 4.7 3.9 1019.1 0.0 0.0 66.4
|
|
Værdata 2 dager siden.
21/4/26
Time Wind Dir Wind Gust Humidity Temp UV Solar Wind Chill Barom SL WindGust H Humidity H Temp Out H UV Hi Solar Hi SL Barom H Humidity L Temp Out L WindCh Lo SL Barom L DailyRain HourRain MonthRain
° mps % °C W/sqm °C mb mps % °C W/sqm mb % °C °C mb mm mm mm
0:00 347 0.4 53 8.7 0.0 0 8.7 1027.9 0.4 53 8.7 0.0 0 1027.9 53 8.7 8.7 1027.9 0.0 0.0 66.4
0:15 3 0.0 56 8.3 0.0 0 8.3 1028.0 2.2 56 8.8 0.0 0 1028.0 53 8.3 7.2 1027.9 0.0 0.0 66.4
0:30 351 1.8 58 8.0 0.0 0 7.1 1028.0 2.2 58 8.8 0.0 0 1028.0 53 8.0 7.1 1027.9 0.0 0.0 66.4
0:45 339 0.9 58 7.8 0.0 0 7.8 1028.0 2.2 58 8.8 0.0 0 1028.0 53 7.8 6.4 1027.9 0.0 0.0 66.4
1:00 358 1.3 59 7.6 0.0 0 7.6 1028.0 3.1 59 8.8 0.0 0 1028.1 53 7.6 5.7 1027.9 0.0 0.0 66.4
1:15 322 1.8 58 7.6 0.0 0 7.6 1028.2 4.5 59 8.8 0.0 0 1028.2 53 7.6 4.8 1027.9 0.0 0.0 66.4
1:30 337 1.8 58 7.6 0.0 0 7.6 1028.2 4.5 59 8.8 0.0 0 1028.2 53 7.5 4.8 1027.9 0.0 0.0 66.4
1:45 344 2.2 59 7.4 0.0 0 6.4 1028.2 4.5 59 8.8 0.0 0 1028.2 53 7.4 4.8 1027.9 0.0 0.0 66.4
2:00 347 2.2 59 7.2 0.0 0 6.7 1028.2 4.5 59 8.8 0.0 0 1028.2 53 7.2 4.8 1027.9 0.0 0.0 66.4
2:15 22 0.9 59 7.2 0.0 0 7.2 1028.2 4.5 60 8.8 0.0 0 1028.2 53 7.1 4.8 1027.9 0.0 0.0 66.4
2:30 26 0.4 60 7.0 0.0 0 7.0 1028.1 4.5 60 8.8 0.0 0 1028.2 53 6.9 4.8 1027.9 0.0 0.0 66.4
2:45 22 0.9 61 6.7 0.0 0 6.7 1028.3 4.5 61 8.8 0.0 0 1028.3 53 6.7 4.8 1027.9 0.0 0.0 66.4
3:00 20 1.3 62 6.5 0.0 0 6.5 1028.3 4.5 62 8.8 0.0 0 1028.3 53 6.4 4.8 1027.9 0.0 0.0 66.4
3:15 16 1.3 61 6.6 0.0 0 6.6 1028.3 4.5 62 8.8 0.0 0 1028.3 53 6.4 4.8 1027.9 0.0 0.0 66.4
3:30 325 0.9 60 6.7 0.0 0 6.7 1028.4 4.5 62 8.8 0.0 0 1028.4 53 6.4 4.8 1027.9 0.0 0.0 66.4
3:45 340 2.2 60 6.5 0.0 0 6.5 1028.4 4.5 62 8.8 0.0 0 1028.4 53 6.4 4.6 1027.9 0.0 0.0 66.4
4:00 344 1.8 61 6.3 0.0 0 5.1 1028.5 4.5 62 8.8 0.0 0 1028.5 53 6.3 4.5 1027.9 0.0 0.0 66.4
4:15 343 0.9 63 5.9 0.0 0 5.9 1028.5 4.5 63 8.8 0.0 0 1028.6 53 5.9 4.5 1027.9 0.0 0.0 66.4
4:30 341 1.8 64 5.5 0.0 0 5.5 1028.5 4.5 64 8.8 0.0 0 1028.6 53 5.5 3.5 1027.9 0.0 0.0 66.4
4:45 18 1.8 65 5.3 0.0 0 5.2 1028.5 4.5 65 8.8 0.0 0 1028.6 53 5.3 3.3 1027.9 0.0 0.0 66.4
5:00 8 0.9 65 5.2 0.0 0 5.1 1028.4 4.5 65 8.8 0.0 0 1028.6 53 5.2 3.0 1027.9 0.0 0.0 66.4
5:15 9 0.4 65 5.1 0.0 0 5.1 1028.3 4.5 65 8.8 0.0 0 1028.6 53 5.0 3.0 1027.9 0.0 0.0 66.4
5:30 8 0.9 65 4.8 0.0 0 4.7 1028.3 4.5 66 8.8 0.0 0 1028.6 53 4.8 3.0 1027.9 0.0 0.0 66.4
5:45 7 0.9 66 4.7 0.0 5 4.7 1028.2 4.5 66 8.8 0.0 5 1028.6 53 4.7 3.0 1027.9 0.0 0.0 66.4
6:00 7 0.9 67 4.4 0.0 11 4.3 1028.3 4.5 67 8.8 0.0 11 1028.6 53 4.4 3.0 1027.9 0.0 0.0 66.4
6:15 3 1.3 69 4.2 0.0 12 4.2 1028.3 4.5 69 8.8 0.0 12 1028.6 53 4.1 2.3 1027.9 0.0 0.0 66.4
6:30 2 0.9 68 4.3 0.0 18 4.3 1028.3 4.5 69 8.8 0.0 18 1028.6 53 4.1 2.3 1027.9 0.0 0.0 66.4
6:45 328 1.8 67 4.5 0.0 21 3.6 1028.4 4.5 69 8.8 0.0 21 1028.6 53 4.1 2.0 1027.9 0.0 0.0 66.4
7:00 323 1.3 68 4.6 0.0 30 4.6 1028.5 4.5 69 8.8 0.0 30 1028.6 53 4.1 2.0 1027.9 0.0 0.0 66.4
7:15 335 0.9 68 4.7 0.0 44 4.6 1028.4 4.5 69 8.8 0.0 58 1028.6 53 4.1 2.0 1027.9 0.0 0.0 66.4
7:30 343 1.8 66 5.2 0.0 98 5.1 1028.4 4.5 69 8.8 0.0 151 1028.6 53 4.1 2.0 1027.9 0.0 0.0 66.4
7:45 15 3.1 66 5.6 0.0 227 5.6 1028.4 4.5 69 8.8 0.0 227 1028.6 53 4.1 2.0 1027.9 0.0 0.0 66.4
8:00 333 1.8 64 6.3 0.0 274 5.1 1028.4 4.5 69 8.8 0.0 274 1028.6 53 4.1 2.0 1027.9 0.0 0.0 66.4
8:15 326 1.3 63 6.8 0.5 323 6.8 1028.4 4.5 69 8.8 0.5 323 1028.6 53 4.1 2.0 1027.9 0.0 0.0 66.4
8:30 327 1.3 63 7.3 0.5 178 7.3 1028.5 4.5 69 8.8 0.6 339 1028.6 53 4.1 2.0 1027.9 0.0 0.0 66.4
8:45 325 1.3 61 7.8 0.6 137 7.8 1028.4 4.5 69 8.8 0.6 339 1028.6 53 4.1 2.0 1027.9 0.0 0.0 66.4
9:00 317 1.8 60 8.3 0.6 105 8.3 1028.5 4.5 69 8.8 0.7 339 1028.6 53 4.1 2.0 1027.9 0.0 0.0 66.4
9:15 322 1.8 59 8.9 0.7 100 8.9 1028.5 4.5 69 8.9 0.8 339 1028.6 53 4.1 2.0 1027.9 0.0 0.0 66.4
9:30 315 2.2 57 9.4 0.8 102 8.7 1028.3 4.5 69 9.4 0.8 339 1028.6 53 4.1 2.0 1027.9 0.0 0.0 66.4
9:45 314 3.1 55 10.1 1.0 204 10.1 1028.3 4.5 69 10.1 1.0 339 1028.6 53 4.1 2.0 1027.9 0.0 0.0 66.4
10:00 8 2.2 57 10.5 1.3 438 10.5 1028.4 4.5 69 10.5 1.4 438 1028.6 53 4.1 2.0 1027.9 0.0 0.0 66.4
10:15 337 0.9 55 11.3 1.7 591 11.3 1028.4 4.5 69 11.3 1.7 591 1028.6 53 4.1 2.0 1027.9 0.0 0.0 66.4
10:30 310 0.4 52 11.9 1.9 647 11.9 1028.5 4.5 69 11.9 1.9 647 1028.6 50 4.1 2.0 1027.9 0.0 0.0 66.4
10:45 337 0.9 49 12.5 2.1 675 12.5 1028.4 4.5 69 12.5 2.1 675 1028.6 49 4.1 2.0 1027.9 0.0 0.0 66.4
11:00 349 0.9 48 13.4 2.3 694 13.4 1028.2 4.5 69 13.4 2.3 694 1028.6 47 4.1 2.0 1027.9 0.0 0.0 66.4
11:15 34 2.7 45 13.9 2.4 724 13.9 1028.1 4.5 69 13.9 2.4 724 1028.6 45 4.1 2.0 1027.9 0.0 0.0 66.4
11:30 33 0.4 41 14.4 2.5 673 14.4 1027.9 4.5 69 14.5 2.5 738 1028.6 40 4.1 2.0 1027.9 0.0 0.0 66.4
11:45 341 0.9 45 14.8 2.7 754 14.8 1027.8 4.5 69 14.9 2.7 754 1028.6 40 4.1 2.0 1027.8 0.0 0.0 66.4
12:00 310 0.9 42 15.2 2.9 768 15.2 1027.7 4.5 69 15.2 2.9 770 1028.6 39 4.1 2.0 1027.7 0.0 0.0 66.4
12:15 15 3.1 33 15.7 3.0 782 15.7 1027.5 4.5 69 15.7 3.0 784 1028.6 33 4.1 2.0 1027.5 0.0 0.0 66.4
12:30 76 1.8 34 16.2 3.1 779 16.2 1027.3 4.5 69 16.2 3.1 786 1028.6 33 4.1 2.0 1027.3 0.0 0.0 66.4
12:45 291 1.8 32 16.3 3.1 779 16.3 1027.4 4.5 69 16.4 3.1 789 1028.6 32 4.1 2.0 1027.3 0.0 0.0 66.4
13:00 349 4.5 31 16.8 3.1 786 16.8 1027.3 4.9 69 16.9 3.2 789 1028.6 31 4.1 2.0 1027.3 0.0 0.0 66.4
13:15 122 1.8 35 16.9 3.2 786 16.9 1027.2 4.9 69 17.0 3.2 793 1028.6 31 4.1 2.0 1027.2 0.0 0.0 66.4
13:30 333 4.9 33 17.2 3.1 777 17.2 1027.1 4.9 69 17.2 3.2 793 1028.6 31 4.1 2.0 1027.1 0.0 0.0 66.4
13:45 78 3.1 34 17.2 3.1 782 17.2 1027.0 4.9 69 17.3 3.2 793 1028.6 31 4.1 2.0 1027.0 0.0 0.0 66.4
14:00 54 2.2 33 17.3 3.1 773 17.3 1026.9 4.9 69 17.4 3.2 793 1028.6 31 4.1 2.0 1026.9 0.0 0.0 66.4
14:15 31 1.8 32 17.6 3.0 763 17.6 1026.8 4.9 69 17.7 3.2 793 1028.6 31 4.1 2.0 1026.8 0.0 0.0 66.4
14:30 107 0.9 32 17.9 2.8 749 17.9 1026.6 4.9 69 17.9 3.2 793 1028.6 31 4.1 2.0 1026.6 0.0 0.0 66.4
14:45 27 1.8 31 17.9 2.7 733 17.9 1026.5 4.9 69 18.2 3.2 793 1028.6 29 4.1 2.0 1026.5 0.0 0.0 66.4
15:00 54 0.9 31 18.2 2.6 712 18.2 1026.4 4.9 69 18.2 3.2 793 1028.6 29 4.1 2.0 1026.4 0.0 0.0 66.4
15:15 68 0.9 31 18.4 2.4 691 18.4 1026.1 4.9 69 18.6 3.2 793 1028.6 29 4.1 2.0 1026.1 0.0 0.0 66.4
15:30 298 3.6 30 18.7 2.2 668 18.7 1026.0 4.9 69 18.8 3.2 793 1028.6 29 4.1 2.0 1026.0 0.0 0.0 66.4
15:45 305 4.0 30 18.2 2.1 642 18.2 1025.8 5.4 69 18.8 3.2 793 1028.6 29 4.1 2.0 1025.8 0.0 0.0 66.4
16:00 293 4.0 32 18.1 1.9 612 18.1 1025.7 5.4 69 18.8 3.2 793 1028.6 29 4.1 2.0 1025.6 0.0 0.0 66.4
16:15 341 5.4 33 18.1 1.7 584 18.1 1025.5 5.8 69 18.8 3.2 793 1028.6 29 4.1 2.0 1025.4 0.0 0.0 66.4
16:30 324 3.6 33 18.0 1.5 552 18.0 1025.4 5.8 69 18.8 3.2 793 1028.6 29 4.1 2.0 1025.4 0.0 0.0 66.4
16:45 308 1.3 33 17.9 1.3 515 17.9 1025.2 5.8 69 18.8 3.2 793 1028.6 29 4.1 2.0 1025.2 0.0 0.0 66.4
17:00 341 2.2 35 17.9 0.7 483 17.9 1025.2 5.8 69 18.8 3.2 793 1028.6 29 4.1 2.0 1025.1 0.0 0.0 66.4
17:15 295 3.6 35 17.6 0.6 443 17.6 1025.1 5.8 69 18.8 3.2 793 1028.6 29 4.1 2.0 1025.0 0.0 0.0 66.4
17:30 335 3.6 36 17.3 0.5 97 17.3 1025.0 6.3 69 18.8 3.2 793 1028.6 29 4.1 2.0 1025.0 0.0 0.0 66.4
17:45 301 5.4 35 17.2 0.5 84 16.9 1024.9 6.3 69 18.8 3.2 793 1028.6 29 4.1 2.0 1024.9 0.0 0.0 66.4
18:00 339 4.9 36 17.1 0.0 60 17.1 1024.8 6.7 69 18.8 3.2 793 1028.6 29 4.1 2.0 1024.7 0.0 0.0 66.4
18:15 326 3.1 36 16.9 0.0 30 16.9 1024.5 6.7 69 18.8 3.2 793 1028.6 29 4.1 2.0 1024.5 0.0 0.0 66.4
18:30 303 4.0 36 16.8 0.0 30 16.4 1024.5 6.7 69 18.8 3.2 793 1028.6 29 4.1 2.0 1024.5 0.0 0.0 66.4
18:45 355 1.3 38 16.7 0.0 28 16.7 1024.4 6.7 69 18.8 3.2 793 1028.6 29 4.1 2.0 1024.4 0.0 0.0 66.4
19:00 338 3.1 37 16.5 0.0 26 16.5 1024.3 6.7 69 18.8 3.2 793 1028.6 29 4.1 2.0 1024.3 0.0 0.0 66.4
19:15 306 1.3 37 16.4 0.0 23 16.4 1024.2 6.7 69 18.8 3.2 793 1028.6 29 4.1 2.0 1024.2 0.0 0.0 66.4
19:30 318 4.0 38 16.3 0.0 21 16.3 1024.2 6.7 69 18.8 3.2 793 1028.6 29 4.1 2.0 1024.1 0.0 0.0 66.4
19:45 324 1.8 39 16.0 0.0 18 16.0 1024.1 6.7 69 18.8 3.2 793 1028.6 29 4.1 2.0 1024.1 0.0 0.0 66.4
20:00 306 3.6 41 15.7 0.0 16 15.7 1024.1 6.7 69 18.8 3.2 793 1028.6 29 4.1 2.0 1024.1 0.0 0.0 66.4
20:15 308 1.8 43 15.3 0.0 11 15.3 1024.0 6.7 69 18.8 3.2 793 1028.6 29 4.1 2.0 1024.0 0.0 0.0 66.4
20:30 307 1.3 44 15.1 0.0 7 15.1 1024.1 6.7 69 18.8 3.2 793 1028.6 29 4.1 2.0 1024.0 0.0 0.0 66.4
20:45 307 1.3 46 14.4 0.0 0 14.4 1024.2 6.7 69 18.8 3.2 793 1028.6 29 4.1 2.0 1024.0 0.0 0.0 66.4
21:00 307 1.3 47 14.2 0.0 0 14.2 1024.1 6.7 69 18.8 3.2 793 1028.6 29 4.1 2.0 1024.0 0.0 0.0 66.4
21:15 303 1.8 47 14.0 0.0 0 14.0 1024.1 6.7 69 18.8 3.2 793 1028.6 29 4.1 2.0 1024.0 0.0 0.0 66.4
21:30 299 1.8 48 13.8 0.0 0 13.7 1024.2 6.7 69 18.8 3.2 793 1028.6 29 4.1 2.0 1024.0 0.0 0.0 66.4
21:45 304 1.8 49 13.6 0.0 0 13.6 1024.2 6.7 69 18.8 3.2 793 1028.6 29 4.1 2.0 1024.0 0.0 0.0 66.4
22:00 299 2.2 51 13.3 0.0 0 13.3 1024.1 6.7 69 18.8 3.2 793 1028.6 29 4.1 2.0 1024.0 0.0 0.0 66.4
22:15 299 1.8 52 13.0 0.0 0 13.0 1024.1 6.7 69 18.8 3.2 793 1028.6 29 4.1 2.0 1024.0 0.0 0.0 66.4
22:30 305 2.2 52 12.8 0.0 0 12.6 1024.1 6.7 69 18.8 3.2 793 1028.6 29 4.1 2.0 1024.0 0.0 0.0 66.4
22:45 301 2.2 53 12.5 0.0 0 12.5 1024.3 6.7 69 18.8 3.2 793 1028.6 29 4.1 2.0 1024.0 0.0 0.0 66.4
23:00 300 1.3 54 12.3 0.0 0 12.3 1024.3 6.7 69 18.8 3.2 793 1028.6 29 4.1 2.0 1024.0 0.0 0.0 66.4
23:15 297 0.4 58 11.5 0.0 0 11.5 1024.5 6.7 69 18.8 3.2 793 1028.6 29 4.1 2.0 1024.0 0.0 0.0 66.4
23:30 297 0.9 59 11.2 0.0 0 11.2 1024.4 6.7 69 18.8 3.2 793 1028.6 29 4.1 2.0 1024.0 0.0 0.0 66.4
23:45 297 0.0 61 10.7 0.0 0 10.7 1024.4 6.7 69 18.8 3.2 793 1028.6 29 4.1 2.0 1024.0 0.0 0.0 66.4
|
|
Værdata 3 dager siden.
20/4/26
Time Wind Dir Wind Gust Humidity Temp UV Solar Wind Chill Barom SL WindGust H Humidity H Temp Out H UV Hi Solar Hi SL Barom H Humidity L Temp Out L WindCh Lo SL Barom L DailyRain HourRain MonthRain
° mps % °C W/sqm °C mb mps % °C W/sqm mb % °C °C mb mm mm mm
0:00 92 3.1 86 5.7 0.0 0 3.5 1024.3 3.1 86 5.7 0.0 0 1024.3 86 5.7 3.5 1024.3 0.0 0.0 66.4
0:15 86 4.0 84 5.4 0.0 0 2.9 1024.5 4.9 86 5.7 0.0 0 1024.5 84 5.4 2.0 1024.3 0.0 0.0 66.4
0:30 91 1.8 83 5.1 0.0 0 5.1 1024.7 4.9 86 5.7 0.0 0 1024.7 83 5.1 2.0 1024.3 0.0 0.0 66.4
0:45 66 3.6 82 4.8 0.0 0 2.9 1024.8 4.9 86 5.7 0.0 0 1024.8 81 4.8 1.7 1024.3 0.0 0.0 66.4
1:00 60 1.8 82 4.5 0.0 0 3.0 1025.0 4.9 86 5.7 0.0 0 1025.0 81 4.5 1.4 1024.3 0.0 0.0 66.4
1:15 35 2.2 82 4.2 0.0 0 2.2 1025.0 4.9 86 5.7 0.0 0 1025.0 81 4.2 1.3 1024.3 0.0 0.0 66.4
1:30 68 3.1 83 4.1 0.0 0 3.1 1025.1 4.9 86 5.7 0.0 0 1025.1 81 4.0 1.3 1024.3 0.0 0.0 66.4
1:45 45 1.3 85 3.8 0.0 0 3.6 1025.1 4.9 86 5.7 0.0 0 1025.1 81 3.8 0.4 1024.3 0.0 0.0 66.4
2:00 64 3.1 85 3.6 0.0 0 2.5 1025.2 4.9 86 5.7 0.0 0 1025.2 81 3.6 0.4 1024.3 0.0 0.0 66.4
2:15 40 0.4 86 3.4 0.0 0 3.4 1025.2 4.9 86 5.7 0.0 0 1025.2 81 3.4 0.4 1024.3 0.0 0.0 66.4
2:30 49 1.3 87 3.1 0.0 0 2.0 1025.3 4.9 87 5.7 0.0 0 1025.3 81 3.1 0.3 1024.3 0.0 0.0 66.4
2:45 20 3.1 87 3.0 0.0 0 3.0 1025.3 4.9 87 5.7 0.0 0 1025.3 81 3.0 0.0 1024.3 0.0 0.0 66.4
3:00 9 1.3 86 2.8 0.0 0 2.8 1025.4 4.9 87 5.7 0.0 0 1025.4 81 2.8 -0.3 1024.3 0.0 0.0 66.4
3:15 47 4.0 87 2.8 0.0 0 1.0 1025.5 5.4 87 5.7 0.0 0 1025.5 81 2.7 -1.6 1024.3 0.0 0.0 66.4
3:30 14 3.1 86 2.7 0.0 0 1.6 1025.7 5.4 87 5.7 0.0 0 1025.7 81 2.7 -1.6 1024.3 0.0 0.0 66.4
3:45 79 3.6 85 2.7 0.0 0 0.9 1025.8 5.4 87 5.7 0.0 0 1025.8 81 2.6 -1.8 1024.3 0.0 0.0 66.4
4:00 70 2.2 85 2.6 0.0 0 1.4 1025.9 5.4 87 5.7 0.0 0 1025.9 81 2.6 -1.8 1024.3 0.0 0.0 66.4
4:15 75 3.1 86 2.3 0.0 0 -0.8 1026.1 5.4 87 5.7 0.0 0 1026.1 81 2.3 -1.8 1024.3 0.0 0.0 66.4
4:30 81 2.7 86 2.2 0.0 0 0.4 1026.2 5.4 87 5.7 0.0 0 1026.2 81 2.2 -1.8 1024.3 0.0 0.0 66.4
4:45 81 0.9 86 2.0 0.0 0 2.0 1026.3 5.4 87 5.7 0.0 0 1026.4 81 2.0 -2.2 1024.3 0.0 0.0 66.4
5:00 62 1.3 86 1.9 0.0 0 0.6 1026.5 5.4 87 5.7 0.0 0 1026.6 81 1.8 -2.2 1024.3 0.0 0.0 66.4
5:15 99 1.8 86 1.9 0.0 0 0.0 1026.7 5.4 87 5.7 0.0 0 1026.7 81 1.8 -2.3 1024.3 0.0 0.0 66.4
5:30 55 3.1 86 1.8 0.0 0 -1.1 1026.7 5.4 87 5.7 0.0 0 1026.8 81 1.8 -2.3 1024.3 0.0 0.0 66.4
5:45 135 1.8 86 1.7 0.0 5 1.3 1026.9 5.4 87 5.7 0.0 5 1026.9 81 1.7 -2.3 1024.3 0.0 0.0 66.4
6:00 45 2.7 86 1.7 0.0 11 -0.3 1026.9 5.4 87 5.7 0.0 11 1026.9 81 1.7 -2.3 1024.3 0.0 0.0 66.4
6:15 45 3.1 86 1.7 0.0 18 0.5 1026.9 5.4 87 5.7 0.0 18 1027.0 81 1.7 -2.3 1024.3 0.0 0.0 66.4
6:30 45 2.7 86 1.7 0.0 23 0.4 1026.9 5.4 87 5.7 0.0 23 1027.0 81 1.7 -2.3 1024.3 0.0 0.0 66.4
6:45 18 5.8 86 1.7 0.0 28 -2.2 1027.1 5.8 87 5.7 0.0 28 1027.1 81 1.7 -3.2 1024.3 0.0 0.0 66.4
7:00 34 4.0 86 1.7 0.0 37 1.3 1027.2 5.8 87 5.7 0.0 37 1027.2 81 1.7 -3.2 1024.3 0.0 0.0 66.4
7:15 162 3.1 86 1.8 0.0 69 1.8 1027.4 5.8 87 5.7 0.0 69 1027.4 81 1.7 -3.2 1024.3 0.0 0.0 66.4
7:30 59 0.9 85 2.2 0.0 97 1.8 1027.7 5.8 87 5.7 0.0 125 1027.7 81 1.7 -3.2 1024.3 0.0 0.0 66.4
7:45 156 4.5 84 2.6 0.0 214 -0.9 1027.8 5.8 87 5.7 0.0 214 1027.8 81 1.7 -3.2 1024.3 0.0 0.0 66.4
8:00 59 3.6 81 3.0 0.0 243 1.9 1027.8 5.8 87 5.7 0.0 243 1027.9 81 1.7 -3.2 1024.3 0.0 0.0 66.4
8:15 27 1.8 81 3.4 0.5 288 3.4 1028.0 5.8 87 5.7 0.5 288 1028.1 81 1.7 -3.2 1024.3 0.0 0.0 66.4
8:30 88 3.1 79 3.8 0.5 169 2.2 1028.2 5.8 87 5.7 0.5 308 1028.2 79 1.7 -3.2 1024.3 0.0 0.0 66.4
8:45 54 1.8 80 4.2 0.6 121 4.2 1028.2 5.8 87 5.7 0.6 308 1028.2 78 1.7 -3.2 1024.3 0.0 0.0 66.4
9:00 61 4.0 78 4.5 0.6 163 1.5 1028.4 5.8 87 5.7 0.7 308 1028.4 78 1.7 -3.2 1024.3 0.0 0.0 66.4
9:15 59 2.2 78 4.9 0.7 125 4.8 1028.5 5.8 87 5.7 0.7 308 1028.5 77 1.7 -3.2 1024.3 0.0 0.0 66.4
9:30 72 2.7 75 5.3 0.8 93 4.5 1028.6 5.8 87 5.7 0.8 308 1028.6 75 1.7 -3.2 1024.3 0.0 0.0 66.4
9:45 39 1.8 78 5.8 0.9 207 5.1 1028.6 5.8 87 5.8 1.0 308 1028.7 75 1.7 -3.2 1024.3 0.0 0.0 66.4
10:00 50 3.1 76 6.3 1.3 466 5.1 1028.7 6.3 87 6.3 1.3 466 1028.8 74 1.7 -3.2 1024.3 0.0 0.0 66.4
10:15 189 1.8 72 6.9 1.7 608 5.8 1028.8 6.3 87 6.9 1.7 608 1028.8 71 1.7 -3.2 1024.3 0.0 0.0 66.4
10:30 28 3.6 67 7.6 1.8 635 7.6 1028.9 6.3 87 7.6 1.8 635 1028.9 67 1.7 -3.2 1024.3 0.0 0.0 66.4
10:45 20 6.3 65 8.0 2.0 663 7.1 1029.0 6.3 87 8.0 2.0 663 1029.0 65 1.7 -3.2 1024.3 0.0 0.0 66.4
11:00 85 0.9 64 8.4 2.2 686 8.4 1029.0 6.3 87 8.4 2.2 686 1029.0 63 1.7 -3.2 1024.3 0.0 0.0 66.4
11:15 95 1.3 62 8.7 2.3 703 8.7 1028.9 6.3 87 8.8 2.3 703 1029.0 61 1.7 -3.2 1024.3 0.0 0.0 66.4
11:30 87 3.1 62 9.4 2.5 728 8.0 1029.0 6.3 87 9.4 2.5 728 1029.0 61 1.7 -3.2 1024.3 0.0 0.0 66.4
11:45 120 4.5 59 9.8 2.7 731 8.2 1028.9 6.3 87 9.8 2.7 745 1029.0 58 1.7 -3.2 1024.3 0.0 0.0 66.4
12:00 97 4.0 56 10.2 2.8 745 9.6 1029.0 6.3 87 10.2 2.8 765 1029.1 56 1.7 -3.2 1024.3 0.0 0.0 66.4
12:15 340 3.6 60 10.5 3.0 782 9.9 1028.9 6.3 87 10.5 3.0 782 1029.1 56 1.7 -3.2 1024.3 0.0 0.0 66.4
12:30 45 2.7 54 10.9 3.0 724 10.4 1028.9 6.3 87 10.9 3.1 788 1029.1 54 1.7 -3.2 1024.3 0.0 0.0 66.4
12:45 118 4.5 50 11.2 3.1 779 9.6 1028.9 6.3 87 11.2 3.1 788 1029.1 50 1.7 -3.2 1024.3 0.0 0.0 66.4
13:00 17 2.7 52 11.2 3.2 788 10.4 1028.8 6.3 87 11.3 3.2 789 1029.1 50 1.7 -3.2 1024.3 0.0 0.0 66.4
13:15 340 4.0 51 11.6 3.2 788 10.6 1028.9 6.3 87 11.8 3.2 793 1029.1 49 1.7 -3.2 1024.3 0.0 0.0 66.4
13:30 12 4.5 49 11.8 3.1 777 10.6 1028.7 6.3 87 11.8 3.2 793 1029.1 48 1.7 -3.2 1024.3 0.0 0.0 66.4
13:45 8 1.8 47 12.0 3.1 772 11.7 1028.7 6.3 87 12.1 3.2 793 1029.1 46 1.7 -3.2 1024.3 0.0 0.0 66.4
14:00 90 1.8 48 12.4 3.0 763 12.4 1028.7 6.3 87 12.4 3.2 793 1029.1 46 1.7 -3.2 1024.3 0.0 0.0 66.4
14:15 33 1.3 45 12.5 2.9 751 12.5 1028.6 6.3 87 12.6 3.2 793 1029.1 45 1.7 -3.2 1024.3 0.0 0.0 66.4
14:30 18 2.2 45 12.8 2.8 740 12.8 1028.4 6.3 87 12.8 3.2 793 1029.1 43 1.7 -3.2 1024.3 0.0 0.0 66.4
14:45 358 2.7 46 12.9 2.7 728 12.9 1028.4 6.3 87 12.9 3.2 793 1029.1 42 1.7 -3.2 1024.3 0.0 0.0 66.4
15:00 320 1.3 43 13.1 2.6 714 13.1 1028.3 6.3 87 13.1 3.2 793 1029.1 42 1.7 -3.2 1024.3 0.0 0.0 66.4
15:15 311 2.2 42 13.2 2.4 689 12.7 1028.1 6.3 87 13.2 3.2 793 1029.1 41 1.7 -3.2 1024.3 0.0 0.0 66.4
15:30 44 0.9 42 13.4 2.2 668 13.4 1028.0 6.7 87 13.6 3.2 793 1029.1 40 1.7 -3.2 1024.3 0.0 0.0 66.4
15:45 47 3.6 43 13.7 2.1 638 13.4 1028.0 6.7 87 13.7 3.2 793 1029.1 40 1.7 -3.2 1024.3 0.0 0.0 66.4
16:00 11 0.9 40 13.9 1.9 612 13.9 1027.8 6.7 87 14.1 3.2 793 1029.1 40 1.7 -3.2 1024.3 0.0 0.0 66.4
16:15 46 3.6 39 14.0 1.7 582 13.3 1027.8 6.7 87 14.2 3.2 793 1029.1 38 1.7 -3.2 1024.3 0.0 0.0 66.4
16:30 65 3.6 37 14.0 1.5 550 14.0 1027.6 6.7 87 14.2 3.2 793 1029.1 37 1.7 -3.2 1024.3 0.0 0.0 66.4
16:45 356 2.7 38 14.0 1.3 517 13.7 1027.5 7.2 87 14.2 3.2 793 1029.1 37 1.7 -3.2 1024.3 0.0 0.0 66.4
17:00 335 1.3 36 13.9 0.7 482 13.9 1027.5 7.2 87 14.2 3.2 793 1029.1 36 1.7 -3.2 1024.3 0.0 0.0 66.4
17:15 68 3.1 34 13.8 0.6 439 13.1 1027.5 7.2 87 14.2 3.2 793 1029.1 34 1.7 -3.2 1024.3 0.0 0.0 66.4
17:30 22 3.1 37 13.8 0.5 165 13.8 1027.5 7.2 87 14.2 3.2 793 1029.1 34 1.7 -3.2 1024.3 0.0 0.0 66.4
17:45 56 0.9 37 13.6 0.5 63 13.6 1027.4 7.2 87 14.2 3.2 793 1029.1 34 1.7 -3.2 1024.3 0.0 0.0 66.4
18:00 341 1.8 37 13.5 0.0 33 13.5 1027.3 7.2 87 14.2 3.2 793 1029.1 34 1.7 -3.2 1024.3 0.0 0.0 66.4
18:15 341 4.9 39 13.4 0.0 32 12.7 1027.3 7.2 87 14.2 3.2 793 1029.1 34 1.7 -3.2 1024.3 0.0 0.0 66.4
18:30 307 3.1 37 13.3 0.0 30 12.9 1027.2 7.2 87 14.2 3.2 793 1029.1 34 1.7 -3.2 1024.3 0.0 0.0 66.4
18:45 276 2.7 37 13.3 0.0 28 13.2 1027.2 7.2 87 14.2 3.2 793 1029.1 34 1.7 -3.2 1024.3 0.0 0.0 66.4
19:00 314 0.9 36 13.2 0.0 26 13.2 1027.2 7.2 87 14.2 3.2 793 1029.1 34 1.7 -3.2 1024.3 0.0 0.0 66.4
19:15 332 1.3 38 13.1 0.0 23 13.1 1027.2 7.2 87 14.2 3.2 793 1029.1 34 1.7 -3.2 1024.3 0.0 0.0 66.4
19:30 349 1.8 40 12.9 0.0 21 12.9 1027.2 7.2 87 14.2 3.2 793 1029.1 34 1.7 -3.2 1024.3 0.0 0.0 66.4
19:45 301 4.0 43 12.9 0.0 18 12.4 1027.2 7.2 87 14.2 3.2 793 1029.1 34 1.7 -3.2 1024.3 0.0 0.0 66.4
20:00 310 3.1 46 12.5 0.0 14 12.5 1027.2 7.2 87 14.2 3.2 793 1029.1 34 1.7 -3.2 1024.3 0.0 0.0 66.4
20:15 310 4.0 47 12.3 0.0 11 11.2 1027.3 7.2 87 14.2 3.2 793 1029.1 34 1.7 -3.2 1024.3 0.0 0.0 66.4
20:30 285 3.1 49 11.9 0.0 7 10.7 1027.3 7.2 87 14.2 3.2 793 1029.1 34 1.7 -3.2 1024.3 0.0 0.0 66.4
20:45 298 4.0 50 11.6 0.0 0 10.6 1027.4 7.2 87 14.2 3.2 793 1029.1 34 1.7 -3.2 1024.3 0.0 0.0 66.4
21:00 306 2.7 51 11.2 0.0 0 10.7 1027.4 7.2 87 14.2 3.2 793 1029.1 34 1.7 -3.2 1024.3 0.0 0.0 66.4
21:15 310 3.1 52 10.8 0.0 0 10.3 1027.4 7.2 87 14.2 3.2 793 1029.1 34 1.7 -3.2 1024.3 0.0 0.0 66.4
21:30 335 4.0 52 10.8 0.0 0 9.6 1027.4 7.2 87 14.2 3.2 793 1029.1 34 1.7 -3.2 1024.3 0.0 0.0 66.4
21:45 293 3.6 52 10.7 0.0 0 9.3 1027.5 7.2 87 14.2 3.2 793 1029.1 34 1.7 -3.2 1024.3 0.0 0.0 66.4
22:00 315 1.8 50 10.8 0.0 0 10.7 1027.5 7.2 87 14.2 3.2 793 1029.1 34 1.7 -3.2 1024.3 0.0 0.0 66.4
22:15 319 4.9 48 10.7 0.0 0 10.7 1027.5 7.2 87 14.2 3.2 793 1029.1 34 1.7 -3.2 1024.3 0.0 0.0 66.4
22:30 352 3.1 47 10.7 0.0 0 10.6 1027.7 7.2 87 14.2 3.2 793 1029.1 34 1.7 -3.2 1024.3 0.0 0.0 66.4
22:45 316 3.1 49 10.3 0.0 0 10.2 1027.7 7.2 87 14.2 3.2 793 1029.1 34 1.7 -3.2 1024.3 0.0 0.0 66.4
23:00 308 1.3 50 10.0 0.0 0 9.8 1027.7 7.2 87 14.2 3.2 793 1029.1 34 1.7 -3.2 1024.3 0.0 0.0 66.4
23:15 326 1.8 50 9.7 0.0 0 9.7 1027.8 7.2 87 14.2 3.2 793 1029.1 34 1.7 -3.2 1024.3 0.0 0.0 66.4
23:30 332 0.9 51 9.4 0.0 0 9.4 1027.8 7.2 87 14.2 3.2 793 1029.1 34 1.7 -3.2 1024.3 0.0 0.0 66.4
23:45 347 1.3 52 9.1 0.0 0 9.1 1027.8 7.2 87 14.2 3.2 793 1029.1 34 1.7 -3.2 1024.3 0.0 0.0 66.4
|
|
Værdata 4 dager siden.
19/4/26
Time Wind Dir Wind Gust Humidity Temp UV Solar Wind Chill Barom SL WindGust H Humidity H Temp Out H UV Hi Solar Hi SL Barom H Humidity L Temp Out L WindCh Lo SL Barom L DailyRain HourRain MonthRain
° mps % °C W/sqm °C mb mps % °C W/sqm mb % °C °C mb mm mm mm
0:00 308 0.0 89 8.7 0.0 0 8.7 1016.5 0.0 89 8.7 0.0 0 1016.5 89 8.7 8.7 1016.5 1.2 1.0 41.8
0:15 308 0.0 89 8.6 0.0 0 8.6 1016.5 0.0 89 8.7 0.0 0 1016.5 89 8.6 8.6 1016.4 0.4 1.2 42.2
0:30 308 0.0 89 8.4 0.0 0 8.4 1016.4 0.0 89 8.7 0.0 0 1016.5 89 8.4 8.4 1016.4 0.8 1.6 42.6
0:45 312 0.0 90 8.2 0.0 0 8.2 1016.4 0.0 90 8.7 0.0 0 1016.5 89 8.2 8.2 1016.4 1.4 1.6 43.2
1:00 314 0.0 91 8.1 0.0 0 8.1 1016.3 0.0 91 8.7 0.0 0 1016.5 89 8.1 8.1 1016.3 1.8 1.8 43.6
1:15 318 0.0 91 8.0 0.0 0 8.0 1016.3 0.0 91 8.7 0.0 0 1016.5 89 8.0 8.0 1016.3 2.2 2.0 44.0
1:30 319 0.0 91 7.9 0.0 0 7.9 1016.1 0.0 91 8.7 0.0 0 1016.5 89 7.9 7.9 1016.1 2.6 1.8 44.4
1:45 13 0.9 91 7.8 0.0 0 7.8 1015.9 1.3 91 8.7 0.0 0 1016.5 89 7.8 7.3 1015.9 3.0 1.8 44.8
2:00 14 0.9 91 7.7 0.0 0 7.7 1015.8 1.3 91 8.7 0.0 0 1016.5 89 7.7 7.2 1015.7 3.4 1.6 45.2
2:15 21 0.9 92 7.7 0.0 0 7.7 1015.7 1.8 92 8.7 0.0 0 1016.5 89 7.7 6.7 1015.7 3.8 1.6 45.6
2:30 39 1.3 92 7.7 0.0 0 7.7 1015.6 2.2 92 8.7 0.0 0 1016.5 89 7.6 6.3 1015.6 4.2 1.6 46.0
2:45 65 0.9 93 7.6 0.0 0 7.6 1015.4 2.2 93 8.7 0.0 0 1016.5 89 7.6 6.2 1015.4 4.6 1.6 46.4
3:00 70 1.8 93 7.6 0.0 0 7.6 1015.3 2.2 93 8.7 0.0 0 1016.5 89 7.6 6.2 1015.3 4.8 1.4 46.6
3:15 88 1.8 94 7.7 0.0 0 7.7 1015.2 2.7 94 8.7 0.0 0 1016.5 89 7.6 5.9 1015.1 4.8 1.0 46.6
3:30 71 1.3 94 7.7 0.0 0 7.2 1015.1 2.7 94 8.7 0.0 0 1016.5 89 7.6 5.9 1015.1 4.8 0.6 46.6
3:45 115 1.3 94 7.8 0.0 0 7.8 1015.1 4.0 94 8.7 0.0 0 1016.5 89 7.6 5.2 1015.0 5.0 0.4 46.8
4:00 85 0.9 94 7.8 0.0 0 7.8 1015.1 4.0 94 8.7 0.0 0 1016.5 89 7.6 5.2 1015.0 5.2 0.4 47.0
4:15 89 0.0 94 7.8 0.0 0 7.8 1015.1 4.0 94 8.7 0.0 0 1016.5 89 7.6 5.2 1015.0 5.2 0.4 47.0
4:30 89 0.9 94 7.8 0.0 0 7.8 1015.1 4.0 94 8.7 0.0 0 1016.5 89 7.6 5.2 1015.0 5.2 0.4 47.0
4:45 89 1.3 95 7.8 0.0 0 7.8 1015.1 4.0 95 8.7 0.0 0 1016.5 89 7.6 5.2 1015.0 5.4 0.4 47.2
5:00 79 2.7 95 7.9 0.0 0 7.9 1015.1 4.0 95 8.7 0.0 0 1016.5 89 7.6 5.2 1015.0 5.6 0.4 47.4
5:15 83 2.7 95 7.9 0.0 0 6.2 1015.0 4.0 95 8.7 0.0 0 1016.5 89 7.6 5.2 1015.0 5.6 0.4 47.4
5:30 98 2.7 95 7.9 0.0 0 7.9 1015.0 4.0 95 8.7 0.0 0 1016.5 89 7.6 5.2 1015.0 5.8 0.6 47.6
5:45 102 2.7 95 7.9 0.0 0 7.0 1015.1 4.0 95 8.7 0.0 0 1016.5 89 7.6 5.2 1014.9 6.0 0.6 47.8
6:00 86 1.3 95 7.9 0.0 0 7.9 1015.1 4.0 95 8.7 0.0 0 1016.5 89 7.6 5.2 1014.9 6.2 0.6 48.0
6:15 146 3.6 95 8.0 0.0 0 7.6 1015.1 4.0 95 8.7 0.0 0 1016.5 89 7.6 5.2 1014.9 6.2 0.6 48.0
6:30 106 2.7 95 8.0 0.0 0 7.6 1015.1 4.0 95 8.7 0.0 0 1016.5 89 7.6 5.2 1014.9 6.4 0.6 48.2
6:45 114 3.1 95 8.0 0.0 5 7.1 1015.1 4.0 95 8.7 0.0 5 1016.5 89 7.6 5.2 1014.9 6.6 0.6 48.4
7:00 104 1.3 95 8.0 0.0 5 8.0 1015.2 5.4 95 8.7 0.0 5 1016.5 89 7.6 4.9 1014.9 6.6 0.4 48.4
7:15 104 3.6 95 8.0 0.0 7 8.0 1015.3 5.4 95 8.7 0.0 7 1016.5 89 7.6 4.9 1014.9 7.0 0.8 48.8
7:30 156 3.6 95 8.1 0.0 7 8.1 1015.4 5.4 95 8.7 0.0 7 1016.5 89 7.6 4.9 1014.9 7.2 0.8 49.0
7:45 111 1.8 95 8.1 0.0 11 8.1 1015.5 5.4 95 8.7 0.0 11 1016.5 89 7.6 4.9 1014.9 7.6 1.0 49.4
8:00 94 3.1 95 8.1 0.0 11 7.1 1015.5 5.4 95 8.7 0.0 11 1016.5 89 7.6 4.9 1014.9 7.8 1.2 49.6
8:15 104 1.8 95 8.1 0.0 9 7.6 1015.6 5.4 95 8.7 0.0 11 1016.5 89 7.6 4.9 1014.9 8.0 1.0 49.8
8:30 95 2.7 95 8.1 0.0 19 8.1 1015.6 5.4 95 8.7 0.0 19 1016.5 89 7.6 4.9 1014.9 8.4 1.2 50.2
8:45 97 2.7 95 8.1 0.0 26 8.1 1015.6 5.4 95 8.7 0.0 28 1016.5 89 7.6 4.9 1014.9 9.0 1.4 50.8
9:00 77 3.1 95 8.1 0.0 18 8.1 1015.7 5.4 95 8.7 0.0 28 1016.5 89 7.6 4.9 1014.9 9.8 2.0 51.6
9:15 139 2.7 96 8.1 0.0 14 6.8 1015.9 5.4 96 8.7 0.0 28 1016.5 89 7.6 4.9 1014.9 10.4 2.4 52.2
9:30 77 2.2 96 8.1 0.0 40 7.2 1016.0 5.4 96 8.7 0.0 44 1016.5 89 7.6 4.9 1014.9 11.6 3.2 53.4
9:45 73 4.5 95 8.0 0.0 37 6.7 1016.1 5.4 96 8.7 0.0 44 1016.5 89 7.6 4.9 1014.9 11.8 3.0 53.6
10:00 126 3.6 95 8.0 0.0 30 7.6 1016.4 5.4 96 8.7 0.0 44 1016.5 89 7.6 4.9 1014.9 12.0 2.2 53.8
10:15 114 0.9 95 7.9 0.0 30 7.9 1016.5 5.4 96 8.7 0.0 44 1016.5 89 7.6 4.9 1014.9 12.4 2.0 54.2
10:30 93 1.8 95 7.9 0.0 46 6.9 1016.6 5.4 96 8.7 0.0 46 1016.6 89 7.6 4.9 1014.9 12.6 1.2 54.4
10:45 114 3.1 95 7.7 0.0 39 6.3 1016.6 5.4 96 8.7 0.0 53 1016.7 89 7.6 4.7 1014.9 12.6 0.8 54.4
11:00 139 2.7 95 7.7 0.0 39 7.2 1016.7 5.4 96 8.7 0.0 53 1016.8 89 7.6 4.7 1014.9 12.6 0.6 54.4
11:15 89 2.7 95 7.7 0.0 35 6.7 1017.0 5.4 96 8.7 0.0 53 1017.0 89 7.6 4.7 1014.9 12.6 0.2 54.4
11:30 107 1.8 95 7.6 0.0 39 6.6 1017.2 5.4 96 8.7 0.0 53 1017.2 89 7.6 4.7 1014.9 13.2 0.6 55.0
11:45 109 2.7 95 7.6 0.0 35 7.6 1017.3 5.4 96 8.7 0.0 53 1017.3 89 7.6 4.5 1014.9 14.0 1.4 55.8
12:00 54 3.1 95 7.6 0.0 53 7.6 1017.4 5.4 96 8.7 0.0 53 1017.4 89 7.6 4.5 1014.9 14.4 1.8 56.2
12:15 94 1.3 95 7.6 0.0 76 7.6 1017.5 5.4 96 8.7 0.0 79 1017.5 89 7.6 4.5 1014.9 14.8 2.2 56.6
12:30 116 3.1 95 7.5 0.0 77 6.5 1017.7 5.4 96 8.7 0.0 84 1017.7 89 7.5 4.5 1014.9 14.8 1.6 56.6
12:45 109 2.7 95 7.5 0.0 56 6.1 1017.8 5.4 96 8.7 0.0 90 1017.8 89 7.4 4.5 1014.9 14.8 1.0 56.6
13:00 101 3.1 95 7.4 0.0 51 7.4 1017.9 6.3 96 8.7 0.0 90 1017.9 89 7.3 3.8 1014.9 15.2 1.0 57.0
13:15 129 3.1 94 7.1 0.0 44 5.0 1017.9 6.3 96 8.7 0.0 90 1018.0 89 7.1 3.8 1014.9 15.4 0.6 57.2
13:30 64 3.6 94 6.9 0.0 42 5.4 1018.0 7.2 96 8.7 0.0 90 1018.1 89 6.9 3.0 1014.9 15.8 1.0 57.6
13:45 105 4.0 94 6.8 0.0 35 4.3 1018.2 7.2 96 8.7 0.0 90 1018.2 89 6.8 3.0 1014.9 16.4 1.6 58.2
14:00 69 4.0 94 6.8 0.0 60 5.2 1018.3 7.2 96 8.7 0.0 90 1018.3 89 6.7 3.0 1014.9 16.8 1.6 58.6
14:15 77 4.0 94 6.7 0.0 58 5.6 1018.4 7.2 96 8.7 0.0 90 1018.4 89 6.7 3.0 1014.9 17.4 2.0 59.2
14:30 102 2.7 94 6.7 0.0 53 6.7 1018.4 7.2 96 8.7 0.0 90 1018.4 89 6.7 3.0 1014.9 17.8 2.0 59.6
14:45 83 4.9 94 6.7 0.0 39 5.6 1018.6 7.2 96 8.7 0.0 90 1018.6 89 6.7 3.0 1014.9 18.4 2.0 60.2
15:00 95 4.0 95 6.8 0.0 37 4.9 1018.6 7.2 96 8.7 0.0 90 1018.7 89 6.7 3.0 1014.9 18.8 2.0 60.6
15:15 89 2.7 95 6.8 0.0 40 6.2 1018.8 7.2 96 8.7 0.0 90 1018.8 89 6.7 3.0 1014.9 19.2 1.8 61.0
15:30 81 4.0 95 6.9 0.0 35 6.9 1018.9 7.2 96 8.7 0.0 90 1019.0 89 6.7 3.0 1014.9 19.6 1.8 61.4
15:45 149 3.6 95 7.0 0.0 33 7.0 1019.0 7.2 96 8.7 0.0 90 1019.1 89 6.7 3.0 1014.9 19.6 1.2 61.4
16:00 64 4.5 95 7.1 0.0 40 4.1 1019.2 7.2 96 8.7 0.0 90 1019.2 89 6.7 3.0 1014.9 19.8 1.0 61.6
16:15 88 4.9 95 7.1 0.0 39 5.0 1019.4 7.2 96 8.7 0.0 90 1019.4 89 6.7 3.0 1014.9 20.0 0.8 61.8
16:30 82 4.0 94 7.2 0.0 65 7.2 1019.4 7.2 96 8.7 0.0 90 1019.4 89 6.7 3.0 1014.9 20.4 1.0 62.2
16:45 70 3.1 94 7.2 0.0 46 5.0 1019.6 7.2 96 8.7 0.0 90 1019.6 89 6.7 3.0 1014.9 20.8 1.2 62.6
17:00 81 4.0 94 7.1 0.0 40 5.0 1019.7 7.2 96 8.7 0.0 90 1019.7 89 6.7 3.0 1014.9 21.6 1.8 63.4
17:15 79 4.9 94 7.1 0.0 39 4.4 1019.8 8.5 96 8.7 0.0 90 1019.9 89 6.7 2.7 1014.9 22.4 2.4 64.2
17:30 96 4.0 94 7.1 0.0 37 4.6 1020.0 8.5 96 8.7 0.0 90 1020.1 89 6.7 2.7 1014.9 22.8 2.4 64.6
17:45 74 3.6 94 7.0 0.0 25 5.5 1020.2 8.5 96 8.7 0.0 90 1020.2 89 6.7 2.7 1014.9 22.8 2.0 64.6
18:00 85 2.7 93 7.0 0.0 26 6.4 1020.3 8.5 96 8.7 0.0 90 1020.4 89 6.7 2.7 1014.9 23.0 1.4 64.8
18:15 102 4.0 93 6.9 0.0 26 5.8 1020.5 8.5 96 8.7 0.0 90 1020.5 89 6.7 2.7 1014.9 23.2 0.8 65.0
18:30 111 4.0 93 6.9 0.0 23 6.9 1020.6 8.5 96 8.7 0.0 90 1020.6 89 6.7 2.7 1014.9 23.4 0.6 65.2
18:45 78 3.1 93 6.9 0.0 14 5.8 1020.7 8.5 96 8.7 0.0 90 1020.7 89 6.7 2.7 1014.9 23.6 0.8 65.4
19:00 95 3.1 93 6.9 0.0 18 6.9 1020.8 8.5 96 8.7 0.0 90 1020.8 89 6.7 2.7 1014.9 23.8 0.8 65.6
19:15 106 3.1 93 6.9 0.0 14 6.9 1020.9 8.5 96 8.7 0.0 90 1020.9 89 6.7 2.7 1014.9 24.0 0.8 65.8
19:30 85 1.8 93 6.8 0.0 12 6.8 1021.0 8.5 96 8.7 0.0 90 1021.0 89 6.7 2.7 1014.9 24.0 0.6 65.8
19:45 72 1.8 93 6.8 0.0 11 6.8 1021.2 8.5 96 8.7 0.0 90 1021.2 89 6.7 2.7 1014.9 24.2 0.6 66.0
20:00 97 2.7 93 6.8 0.0 7 6.2 1021.4 8.5 96 8.7 0.0 90 1021.4 89 6.7 2.7 1014.9 24.2 0.4 66.0
20:15 107 4.0 92 6.7 0.0 0 4.0 1021.6 8.5 96 8.7 0.0 90 1021.6 89 6.7 2.7 1014.9 24.4 0.4 66.2
20:30 100 4.0 91 6.6 0.0 0 6.0 1021.8 8.5 96 8.7 0.0 90 1021.9 89 6.6 2.7 1014.9 24.4 0.4 66.2
20:45 83 3.6 90 6.6 0.0 0 4.6 1022.1 8.5 96 8.7 0.0 90 1022.1 89 6.5 2.7 1014.9 24.6 0.4 66.4
21:00 110 2.7 90 6.4 0.0 0 4.8 1022.2 8.5 96 8.7 0.0 90 1022.3 89 6.4 2.7 1014.9 24.6 0.4 66.4
21:15 75 2.7 89 6.5 0.0 0 4.9 1022.4 8.5 96 8.7 0.0 90 1022.4 89 6.4 2.7 1014.9 24.6 0.2 66.4
21:30 104 1.3 90 6.4 0.0 0 6.4 1022.6 8.5 96 8.7 0.0 90 1022.6 89 6.4 2.7 1014.9 24.6 0.2 66.4
21:45 127 3.6 88 6.4 0.0 0 5.7 1022.8 8.5 96 8.7 0.0 90 1022.8 88 6.4 2.7 1014.9 24.6 0.0 66.4
22:00 81 2.7 88 6.3 0.0 0 6.3 1022.9 8.5 96 8.7 0.0 90 1023.0 88 6.3 2.7 1014.9 24.6 0.0 66.4
22:15 82 2.7 89 6.3 0.0 0 6.3 1023.0 8.5 96 8.7 0.0 90 1023.0 87 6.3 2.7 1014.9 24.6 0.0 66.4
22:30 67 1.3 89 6.1 0.0 0 6.1 1023.1 8.5 96 8.7 0.0 90 1023.2 87 6.1 2.7 1014.9 24.6 0.0 66.4
22:45 87 1.3 87 6.1 0.0 0 5.4 1023.3 8.5 96 8.7 0.0 90 1023.3 87 6.1 2.7 1014.9 24.6 0.0 66.4
23:00 82 2.7 86 6.1 0.0 0 5.4 1023.4 8.5 96 8.7 0.0 90 1023.5 86 6.0 2.7 1014.9 24.6 0.0 66.4
23:15 101 4.0 86 6.0 0.0 0 6.0 1023.6 8.5 96 8.7 0.0 90 1023.6 86 5.9 2.7 1014.9 24.6 0.0 66.4
23:30 73 1.3 87 5.9 0.0 0 5.9 1023.7 8.5 96 8.7 0.0 90 1023.7 86 5.9 2.7 1014.9 24.6 0.0 66.4
23:45 102 3.1 86 5.8 0.0 0 5.0 1024.0 8.5 96 8.7 0.0 90 1024.0 86 5.8 2.3 1014.9 24.6 0.0 66.4
|
©All rights
reserved.
Uautorisert kopiering eller distribusjon er forbudt.
Ta aldri noen viktige beslutninger
basert på disse opplysningene eller noen annen væropplysning hentet fra
Internett.
Oppdatert automatisk med Ambient Software's Virtual Weather Station V15.00
Besøkende nr = Besøkende nr =